sensor_id;sensor_type;location;lat;lon;timestamp;P1;durP1;ratioP1;P2;durP2;ratioP2
22480;SDS011;11407;56.964;-2.212;2022-07-06T00:01:03;2.00;;;1.07;;
22480;SDS011;11407;56.964;-2.212;2022-07-06T00:03:29;2.67;;;1.00;;
22480;SDS011;11407;56.964;-2.212;2022-07-06T00:05:54;2.23;;;1.00;;
22480;SDS011;11407;56.964;-2.212;2022-07-06T00:08:21;2.03;;;1.20;;
22480;SDS011;11407;56.964;-2.212;2022-07-06T00:10:46;1.47;;;0.90;;
22480;SDS011;11407;56.964;-2.212;2022-07-06T00:13:12;3.03;;;1.20;;
22480;SDS011;11407;56.964;-2.212;2022-07-06T00:15:37;1.03;;;0.90;;
22480;SDS011;11407;56.964;-2.212;2022-07-06T00:18:02;1.23;;;1.10;;
22480;SDS011;11407;56.964;-2.212;2022-07-06T00:20:28;1.90;;;1.10;;
22480;SDS011;11407;56.964;-2.212;2022-07-06T00:22:53;3.20;;;0.90;;
22480;SDS011;11407;56.964;-2.212;2022-07-06T00:25:19;2.17;;;1.10;;
22480;SDS011;11407;56.964;-2.212;2022-07-06T00:27:44;3.40;;;1.10;;
22480;SDS011;11407;56.964;-2.212;2022-07-06T00:30:10;3.10;;;1.20;;
22480;SDS011;11407;56.964;-2.212;2022-07-06T00:32:35;1.63;;;0.77;;
22480;SDS011;11407;56.964;-2.212;2022-07-06T00:35:01;1.57;;;0.93;;
22480;SDS011;11407;56.964;-2.212;2022-07-06T00:37:26;1.23;;;0.83;;
22480;SDS011;11407;56.964;-2.212;2022-07-06T00:39:52;1.33;;;0.90;;
22480;SDS011;11407;56.964;-2.212;2022-07-06T00:42:17;0.63;;;0.63;;
22480;SDS011;11407;56.964;-2.212;2022-07-06T00:44:43;1.67;;;0.90;;
22480;SDS011;11407;56.964;-2.212;2022-07-06T00:47:08;1.00;;;0.70;;
22480;SDS011;11407;56.964;-2.212;2022-07-06T00:49:34;1.67;;;0.90;;
22480;SDS011;11407;56.964;-2.212;2022-07-06T00:52:18;1.20;;;0.90;;
22480;SDS011;11407;56.964;-2.212;2022-07-06T00:54:44;2.03;;;0.90;;
22480;SDS011;11407;56.964;-2.212;2022-07-06T00:57:11;2.03;;;0.77;;
22480;SDS011;11407;56.964;-2.212;2022-07-06T00:59:37;1.70;;;0.63;;
22480;SDS011;11407;56.964;-2.212;2022-07-06T01:02:02;1.80;;;1.10;;
22480;SDS011;11407;56.964;-2.212;2022-07-06T01:04:28;1.23;;;0.60;;
22480;SDS011;11407;56.964;-2.212;2022-07-06T01:06:53;1.80;;;0.90;;
22480;SDS011;11407;56.964;-2.212;2022-07-06T01:09:20;2.10;;;1.10;;
22480;SDS011;11407;56.964;-2.212;2022-07-06T01:11:46;2.10;;;1.07;;
22480;SDS011;11407;56.964;-2.212;2022-07-06T01:14:12;2.90;;;1.00;;
22480;SDS011;11407;56.964;-2.212;2022-07-06T01:16:39;1.13;;;0.80;;
22480;SDS011;11407;56.964;-2.212;2022-07-06T01:19:04;1.67;;;0.90;;
22480;SDS011;11407;56.964;-2.212;2022-07-06T01:21:30;1.60;;;0.90;;
22480;SDS011;11407;56.964;-2.212;2022-07-06T01:23:55;1.67;;;1.00;;
22480;SDS011;11407;56.964;-2.212;2022-07-06T01:26:21;1.30;;;1.07;;
22480;SDS011;11407;56.964;-2.212;2022-07-06T01:28:50;1.73;;;1.10;;
22480;SDS011;11407;56.964;-2.212;2022-07-06T01:31:20;3.73;;;1.10;;
22480;SDS011;11407;56.964;-2.212;2022-07-06T01:33:48;1.90;;;1.00;;
22480;SDS011;11407;56.964;-2.212;2022-07-06T01:36:15;1.00;;;0.90;;
22480;SDS011;11407;56.964;-2.212;2022-07-06T01:38:48;1.97;;;1.07;;
22480;SDS011;11407;56.964;-2.212;2022-07-06T01:41:15;1.67;;;1.10;;
22480;SDS011;11407;56.964;-2.212;2022-07-06T01:43:40;1.07;;;0.93;;
22480;SDS011;11407;56.964;-2.212;2022-07-06T01:46:06;1.67;;;0.90;;
22480;SDS011;11407;56.964;-2.212;2022-07-06T01:48:32;2.47;;;1.10;;
22480;SDS011;11407;56.964;-2.212;2022-07-06T01:50:57;2.37;;;1.00;;
22480;SDS011;11407;56.964;-2.212;2022-07-06T01:53:22;2.53;;;1.00;;
22480;SDS011;11407;56.964;-2.212;2022-07-06T01:55:48;1.03;;;0.90;;
22480;SDS011;11407;56.964;-2.212;2022-07-06T01:58:14;2.00;;;1.10;;
22480;SDS011;11407;56.964;-2.212;2022-07-06T02:00:39;2.60;;;1.00;;
22480;SDS011;11407;56.964;-2.212;2022-07-06T02:03:05;1.33;;;1.00;;
22480;SDS011;11407;56.964;-2.212;2022-07-06T02:05:30;1.30;;;1.03;;
22480;SDS011;11407;56.964;-2.212;2022-07-06T02:07:56;1.17;;;1.00;;
22480;SDS011;11407;56.964;-2.212;2022-07-06T02:10:21;1.60;;;0.90;;
22480;SDS011;11407;56.964;-2.212;2022-07-06T02:12:47;2.47;;;1.10;;
22480;SDS011;11407;56.964;-2.212;2022-07-06T02:15:12;1.70;;;1.00;;
22480;SDS011;11407;56.964;-2.212;2022-07-06T02:17:38;1.90;;;1.00;;
22480;SDS011;11407;56.964;-2.212;2022-07-06T02:20:04;1.70;;;1.00;;
22480;SDS011;11407;56.964;-2.212;2022-07-06T02:22:30;1.73;;;1.20;;
22480;SDS011;11407;56.964;-2.212;2022-07-06T02:24:56;1.93;;;1.10;;
22480;SDS011;11407;56.964;-2.212;2022-07-06T02:27:21;2.67;;;1.20;;
22480;SDS011;11407;56.964;-2.212;2022-07-06T02:29:46;2.47;;;1.47;;
22480;SDS011;11407;56.964;-2.212;2022-07-06T02:32:12;0.97;;;0.93;;
22480;SDS011;11407;56.964;-2.212;2022-07-06T02:34:37;2.00;;;1.20;;
22480;SDS011;11407;56.964;-2.212;2022-07-06T02:37:03;1.73;;;1.27;;
22480;SDS011;11407;56.964;-2.212;2022-07-06T02:39:28;2.27;;;1.67;;
22480;SDS011;11407;56.964;-2.212;2022-07-06T02:41:54;1.30;;;1.20;;
22480;SDS011;11407;56.964;-2.212;2022-07-06T02:44:19;2.93;;;1.10;;
22480;SDS011;11407;56.964;-2.212;2022-07-06T02:46:45;1.50;;;1.00;;
22480;SDS011;11407;56.964;-2.212;2022-07-06T02:49:10;3.27;;;0.90;;
22480;SDS011;11407;56.964;-2.212;2022-07-06T02:51:36;1.03;;;0.90;;
22480;SDS011;11407;56.964;-2.212;2022-07-06T02:54:01;1.00;;;0.90;;
22480;SDS011;11407;56.964;-2.212;2022-07-06T02:56:27;1.87;;;0.90;;
22480;SDS011;11407;56.964;-2.212;2022-07-06T02:58:53;2.10;;;1.03;;
22480;SDS011;11407;56.964;-2.212;2022-07-06T03:01:18;1.30;;;0.80;;
22480;SDS011;11407;56.964;-2.212;2022-07-06T03:03:44;1.63;;;1.00;;
22480;SDS011;11407;56.964;-2.212;2022-07-06T03:06:09;1.60;;;0.90;;
22480;SDS011;11407;56.964;-2.212;2022-07-06T03:08:35;2.00;;;0.80;;
22480;SDS011;11407;56.964;-2.212;2022-07-06T03:11:00;1.13;;;0.80;;
22480;SDS011;11407;56.964;-2.212;2022-07-06T03:13:26;0.83;;;0.83;;
22480;SDS011;11407;56.964;-2.212;2022-07-06T03:15:53;0.73;;;0.73;;
22480;SDS011;11407;56.964;-2.212;2022-07-06T03:18:18;1.23;;;0.80;;
22480;SDS011;11407;56.964;-2.212;2022-07-06T03:20:44;1.27;;;0.90;;
22480;SDS011;11407;56.964;-2.212;2022-07-06T03:23:09;1.10;;;0.80;;
22480;SDS011;11407;56.964;-2.212;2022-07-06T03:25:35;1.07;;;0.60;;
22480;SDS011;11407;56.964;-2.212;2022-07-06T03:28:00;1.00;;;0.70;;
22480;SDS011;11407;56.964;-2.212;2022-07-06T03:30:26;1.87;;;0.70;;
22480;SDS011;11407;56.964;-2.212;2022-07-06T03:32:51;1.20;;;0.70;;
22480;SDS011;11407;56.964;-2.212;2022-07-06T03:35:17;0.80;;;0.80;;
22480;SDS011;11407;56.964;-2.212;2022-07-06T03:37:43;2.53;;;0.80;;
22480;SDS011;11407;56.964;-2.212;2022-07-06T03:40:08;0.80;;;0.70;;
22480;SDS011;11407;56.964;-2.212;2022-07-06T03:42:35;0.60;;;0.60;;
22480;SDS011;11407;56.964;-2.212;2022-07-06T03:45:00;0.93;;;0.80;;
22480;SDS011;11407;56.964;-2.212;2022-07-06T03:47:26;0.60;;;0.60;;
22480;SDS011;11407;56.964;-2.212;2022-07-06T03:49:51;0.67;;;0.57;;
22480;SDS011;11407;56.964;-2.212;2022-07-06T03:52:17;0.50;;;0.50;;
22480;SDS011;11407;56.964;-2.212;2022-07-06T03:54:42;1.03;;;0.60;;
22480;SDS011;11407;56.964;-2.212;2022-07-06T03:57:07;1.23;;;0.70;;
22480;SDS011;11407;56.964;-2.212;2022-07-06T03:59:33;0.83;;;0.70;;
22480;SDS011;11407;56.964;-2.212;2022-07-06T04:01:58;0.87;;;0.67;;
22480;SDS011;11407;56.964;-2.212;2022-07-06T04:04:24;1.63;;;0.60;;
22480;SDS011;11407;56.964;-2.212;2022-07-06T04:06:49;1.83;;;0.70;;
22480;SDS011;11407;56.964;-2.212;2022-07-06T04:09:15;1.00;;;0.60;;
22480;SDS011;11407;56.964;-2.212;2022-07-06T04:11:40;1.17;;;0.60;;
22480;SDS011;11407;56.964;-2.212;2022-07-06T04:14:05;0.80;;;0.70;;
22480;SDS011;11407;56.964;-2.212;2022-07-06T04:16:31;0.63;;;0.50;;
22480;SDS011;11407;56.964;-2.212;2022-07-06T04:18:56;1.17;;;0.60;;
22480;SDS011;11407;56.964;-2.212;2022-07-06T04:21:22;0.50;;;0.50;;
22480;SDS011;11407;56.964;-2.212;2022-07-06T04:23:47;0.73;;;0.60;;
22480;SDS011;11407;56.964;-2.212;2022-07-06T04:26:12;0.50;;;0.50;;
22480;SDS011;11407;56.964;-2.212;2022-07-06T04:28:38;0.50;;;0.50;;
22480;SDS011;11407;56.964;-2.212;2022-07-06T04:31:03;0.50;;;0.50;;
22480;SDS011;11407;56.964;-2.212;2022-07-06T04:33:29;0.77;;;0.50;;
22480;SDS011;11407;56.964;-2.212;2022-07-06T04:35:54;2.20;;;0.50;;
22480;SDS011;11407;56.964;-2.212;2022-07-06T04:38:20;1.27;;;0.57;;
22480;SDS011;11407;56.964;-2.212;2022-07-06T04:40:45;0.60;;;0.60;;
22480;SDS011;11407;56.964;-2.212;2022-07-06T04:43:14;0.50;;;0.50;;
22480;SDS011;11407;56.964;-2.212;2022-07-06T04:45:39;0.50;;;0.40;;
22480;SDS011;11407;56.964;-2.212;2022-07-06T04:48:05;0.50;;;0.50;;
22480;SDS011;11407;56.964;-2.212;2022-07-06T04:50:33;0.40;;;0.40;;
22480;SDS011;11407;56.964;-2.212;2022-07-06T04:52:58;0.50;;;0.50;;
22480;SDS011;11407;56.964;-2.212;2022-07-06T04:55:24;0.50;;;0.50;;
22480;SDS011;11407;56.964;-2.212;2022-07-06T04:57:50;0.50;;;0.50;;
22480;SDS011;11407;56.964;-2.212;2022-07-06T05:00:16;0.53;;;0.53;;
22480;SDS011;11407;56.964;-2.212;2022-07-06T05:02:42;0.43;;;0.43;;
22480;SDS011;11407;56.964;-2.212;2022-07-06T05:05:08;0.50;;;0.50;;
22480;SDS011;11407;56.964;-2.212;2022-07-06T05:07:36;0.40;;;0.40;;
22480;SDS011;11407;56.964;-2.212;2022-07-06T05:10:05;0.70;;;0.50;;
22480;SDS011;11407;56.964;-2.212;2022-07-06T05:12:32;0.40;;;0.40;;
22480;SDS011;11407;56.964;-2.212;2022-07-06T05:14:57;0.43;;;0.43;;
22480;SDS011;11407;56.964;-2.212;2022-07-06T05:17:24;0.50;;;0.50;;
22480;SDS011;11407;56.964;-2.212;2022-07-06T05:19:49;0.30;;;0.30;;
22480;SDS011;11407;56.964;-2.212;2022-07-06T05:22:15;0.50;;;0.50;;
22480;SDS011;11407;56.964;-2.212;2022-07-06T05:24:40;0.40;;;0.40;;
22480;SDS011;11407;56.964;-2.212;2022-07-06T05:27:05;0.40;;;0.40;;
22480;SDS011;11407;56.964;-2.212;2022-07-06T05:29:31;0.40;;;0.40;;
22480;SDS011;11407;56.964;-2.212;2022-07-06T05:31:56;0.40;;;0.40;;
22480;SDS011;11407;56.964;-2.212;2022-07-06T05:34:22;0.40;;;0.40;;
22480;SDS011;11407;56.964;-2.212;2022-07-06T05:36:47;0.37;;;0.37;;
22480;SDS011;11407;56.964;-2.212;2022-07-06T05:39:12;0.30;;;0.30;;
22480;SDS011;11407;56.964;-2.212;2022-07-06T05:41:38;0.40;;;0.40;;
22480;SDS011;11407;56.964;-2.212;2022-07-06T05:44:03;0.43;;;0.43;;
22480;SDS011;11407;56.964;-2.212;2022-07-06T05:46:29;0.40;;;0.40;;
22480;SDS011;11407;56.964;-2.212;2022-07-06T05:48:54;0.30;;;0.30;;
22480;SDS011;11407;56.964;-2.212;2022-07-06T05:51:38;0.30;;;0.30;;
22480;SDS011;11407;56.964;-2.212;2022-07-06T05:54:04;0.30;;;0.30;;
22480;SDS011;11407;56.964;-2.212;2022-07-06T05:56:29;0.40;;;0.40;;
22480;SDS011;11407;56.964;-2.212;2022-07-06T05:58:55;0.70;;;0.70;;
22480;SDS011;11407;56.964;-2.212;2022-07-06T06:01:20;0.60;;;0.40;;
22480;SDS011;11407;56.964;-2.212;2022-07-06T06:03:46;0.30;;;0.30;;
22480;SDS011;11407;56.964;-2.212;2022-07-06T06:06:11;0.40;;;0.40;;
22480;SDS011;11407;56.964;-2.212;2022-07-06T06:08:36;0.47;;;0.30;;
22480;SDS011;11407;56.964;-2.212;2022-07-06T06:11:02;0.57;;;0.40;;
22480;SDS011;11407;56.964;-2.212;2022-07-06T06:13:27;1.60;;;0.40;;
22480;SDS011;11407;56.964;-2.212;2022-07-06T06:15:53;0.30;;;0.30;;
22480;SDS011;11407;56.964;-2.212;2022-07-06T06:18:18;0.33;;;0.33;;
22480;SDS011;11407;56.964;-2.212;2022-07-06T06:20:44;0.40;;;0.40;;
22480;SDS011;11407;56.964;-2.212;2022-07-06T06:23:10;0.40;;;0.40;;
22480;SDS011;11407;56.964;-2.212;2022-07-06T06:25:36;0.33;;;0.33;;
22480;SDS011;11407;56.964;-2.212;2022-07-06T06:28:03;0.30;;;0.30;;
22480;SDS011;11407;56.964;-2.212;2022-07-06T06:30:30;0.40;;;0.40;;
22480;SDS011;11407;56.964;-2.212;2022-07-06T06:35:34;0.73;;;0.43;;
22480;SDS011;11407;56.964;-2.212;2022-07-06T06:38:00;0.50;;;0.50;;
22480;SDS011;11407;56.964;-2.212;2022-07-06T06:40:25;0.40;;;0.40;;
22480;SDS011;11407;56.964;-2.212;2022-07-06T06:42:51;0.40;;;0.40;;
22480;SDS011;11407;56.964;-2.212;2022-07-06T06:45:16;0.37;;;0.37;;
22480;SDS011;11407;56.964;-2.212;2022-07-06T06:47:41;0.50;;;0.50;;
22480;SDS011;11407;56.964;-2.212;2022-07-06T06:50:07;0.40;;;0.40;;
22480;SDS011;11407;56.964;-2.212;2022-07-06T06:52:33;0.30;;;0.30;;
22480;SDS011;11407;56.964;-2.212;2022-07-06T06:54:58;0.53;;;0.40;;
22480;SDS011;11407;56.964;-2.212;2022-07-06T06:57:24;0.40;;;0.40;;
22480;SDS011;11407;56.964;-2.212;2022-07-06T06:59:50;0.40;;;0.40;;
22480;SDS011;11407;56.964;-2.212;2022-07-06T07:02:15;0.33;;;0.30;;
22480;SDS011;11407;56.964;-2.212;2022-07-06T07:04:41;0.40;;;0.40;;
22480;SDS011;11407;56.964;-2.212;2022-07-06T07:07:06;0.73;;;0.30;;
22480;SDS011;11407;56.964;-2.212;2022-07-06T07:09:32;0.40;;;0.40;;
22480;SDS011;11407;56.964;-2.212;2022-07-06T07:11:57;0.33;;;0.33;;
22480;SDS011;11407;56.964;-2.212;2022-07-06T07:14:23;0.47;;;0.47;;
22480;SDS011;11407;56.964;-2.212;2022-07-06T07:16:48;0.67;;;0.50;;
22480;SDS011;11407;56.964;-2.212;2022-07-06T07:19:14;0.33;;;0.33;;
22480;SDS011;11407;56.964;-2.212;2022-07-06T07:21:39;0.43;;;0.40;;
22480;SDS011;11407;56.964;-2.212;2022-07-06T07:24:05;0.40;;;0.40;;
22480;SDS011;11407;56.964;-2.212;2022-07-06T07:26:32;1.07;;;0.50;;
22480;SDS011;11407;56.964;-2.212;2022-07-06T07:28:58;1.40;;;0.70;;
22480;SDS011;11407;56.964;-2.212;2022-07-06T07:31:23;1.17;;;0.63;;
22480;SDS011;11407;56.964;-2.212;2022-07-06T07:33:48;3.60;;;0.50;;
22480;SDS011;11407;56.964;-2.212;2022-07-06T07:36:14;0.40;;;0.40;;
22480;SDS011;11407;56.964;-2.212;2022-07-06T07:38:39;0.77;;;0.40;;
22480;SDS011;11407;56.964;-2.212;2022-07-06T07:41:05;0.50;;;0.50;;
22480;SDS011;11407;56.964;-2.212;2022-07-06T07:43:31;0.60;;;0.40;;
22480;SDS011;11407;56.964;-2.212;2022-07-06T07:45:56;0.90;;;0.73;;
22480;SDS011;11407;56.964;-2.212;2022-07-06T07:48:22;0.60;;;0.50;;
22480;SDS011;11407;56.964;-2.212;2022-07-06T07:50:47;0.60;;;0.50;;
22480;SDS011;11407;56.964;-2.212;2022-07-06T07:53:13;1.43;;;0.47;;
22480;SDS011;11407;56.964;-2.212;2022-07-06T07:55:38;0.40;;;0.40;;
22480;SDS011;11407;56.964;-2.212;2022-07-06T07:58:04;0.40;;;0.40;;
22480;SDS011;11407;56.964;-2.212;2022-07-06T08:00:29;0.40;;;0.40;;
22480;SDS011;11407;56.964;-2.212;2022-07-06T08:02:55;2.03;;;0.50;;
22480;SDS011;11407;56.964;-2.212;2022-07-06T08:05:20;1.50;;;0.47;;
22480;SDS011;11407;56.964;-2.212;2022-07-06T08:07:46;0.80;;;0.53;;
22480;SDS011;11407;56.964;-2.212;2022-07-06T08:10:12;0.53;;;0.53;;
22480;SDS011;11407;56.964;-2.212;2022-07-06T08:12:37;0.50;;;0.50;;
22480;SDS011;11407;56.964;-2.212;2022-07-06T08:15:03;0.50;;;0.50;;
22480;SDS011;11407;56.964;-2.212;2022-07-06T08:17:30;0.57;;;0.53;;
22480;SDS011;11407;56.964;-2.212;2022-07-06T08:19:56;0.73;;;0.50;;
22480;SDS011;11407;56.964;-2.212;2022-07-06T08:22:22;0.57;;;0.50;;
22480;SDS011;11407;56.964;-2.212;2022-07-06T08:24:47;0.30;;;0.30;;
22480;SDS011;11407;56.964;-2.212;2022-07-06T08:27:13;0.50;;;0.50;;
22480;SDS011;11407;56.964;-2.212;2022-07-06T08:29:38;0.40;;;0.40;;
22480;SDS011;11407;56.964;-2.212;2022-07-06T08:32:04;0.43;;;0.43;;
22480;SDS011;11407;56.964;-2.212;2022-07-06T08:34:29;0.40;;;0.40;;
22480;SDS011;11407;56.964;-2.212;2022-07-06T08:36:55;1.37;;;0.70;;
22480;SDS011;11407;56.964;-2.212;2022-07-06T08:39:20;0.83;;;0.47;;
22480;SDS011;11407;56.964;-2.212;2022-07-06T08:41:46;0.80;;;0.50;;
22480;SDS011;11407;56.964;-2.212;2022-07-06T08:44:13;0.40;;;0.40;;
22480;SDS011;11407;56.964;-2.212;2022-07-06T08:46:40;0.50;;;0.50;;
22480;SDS011;11407;56.964;-2.212;2022-07-06T08:49:06;1.60;;;0.40;;
22480;SDS011;11407;56.964;-2.212;2022-07-06T08:51:34;1.77;;;0.47;;
22480;SDS011;11407;56.964;-2.212;2022-07-06T08:54:01;0.40;;;0.40;;
22480;SDS011;11407;56.964;-2.212;2022-07-06T08:56:27;0.77;;;0.43;;
22480;SDS011;11407;56.964;-2.212;2022-07-06T08:58:54;0.50;;;0.50;;
22480;SDS011;11407;56.964;-2.212;2022-07-06T09:01:19;2.50;;;0.50;;
22480;SDS011;11407;56.964;-2.212;2022-07-06T09:03:46;0.77;;;0.50;;
22480;SDS011;11407;56.964;-2.212;2022-07-06T09:06:15;0.50;;;0.50;;
22480;SDS011;11407;56.964;-2.212;2022-07-06T09:08:44;1.57;;;0.40;;
22480;SDS011;11407;56.964;-2.212;2022-07-06T09:11:11;0.83;;;0.50;;
22480;SDS011;11407;56.964;-2.212;2022-07-06T09:13:37;1.13;;;0.60;;
22480;SDS011;11407;56.964;-2.212;2022-07-06T09:16:13;1.07;;;0.50;;
22480;SDS011;11407;56.964;-2.212;2022-07-06T09:18:42;1.20;;;0.50;;
22480;SDS011;11407;56.964;-2.212;2022-07-06T09:21:09;0.90;;;0.80;;
22480;SDS011;11407;56.964;-2.212;2022-07-06T09:23:36;0.60;;;0.60;;
22480;SDS011;11407;56.964;-2.212;2022-07-06T09:26:03;0.60;;;0.60;;
22480;SDS011;11407;56.964;-2.212;2022-07-06T09:28:40;0.50;;;0.50;;
22480;SDS011;11407;56.964;-2.212;2022-07-06T09:31:09;0.50;;;0.50;;
22480;SDS011;11407;56.964;-2.212;2022-07-06T09:33:35;1.57;;;0.50;;
22480;SDS011;11407;56.964;-2.212;2022-07-06T09:36:01;1.80;;;0.50;;
22480;SDS011;11407;56.964;-2.212;2022-07-06T09:38:27;0.60;;;0.53;;
22480;SDS011;11407;56.964;-2.212;2022-07-06T09:40:53;0.70;;;0.60;;
22480;SDS011;11407;56.964;-2.212;2022-07-06T09:43:19;0.57;;;0.50;;
22480;SDS011;11407;56.964;-2.212;2022-07-06T09:45:54;0.40;;;0.40;;
22480;SDS011;11407;56.964;-2.212;2022-07-06T09:48:21;0.60;;;0.50;;
22480;SDS011;11407;56.964;-2.212;2022-07-06T09:50:49;0.40;;;0.40;;
22480;SDS011;11407;56.964;-2.212;2022-07-06T09:53:18;0.50;;;0.50;;
22480;SDS011;11407;56.964;-2.212;2022-07-06T09:55:48;0.50;;;0.50;;
22480;SDS011;11407;56.964;-2.212;2022-07-06T09:58:16;0.57;;;0.57;;
22480;SDS011;11407;56.964;-2.212;2022-07-06T10:00:42;1.23;;;0.60;;
22480;SDS011;11407;56.964;-2.212;2022-07-06T10:03:09;0.50;;;0.50;;
22480;SDS011;11407;56.964;-2.212;2022-07-06T10:05:39;0.40;;;0.40;;
22480;SDS011;11407;56.964;-2.212;2022-07-06T10:08:06;0.40;;;0.37;;
22480;SDS011;11407;56.964;-2.212;2022-07-06T10:10:34;0.30;;;0.30;;
22480;SDS011;11407;56.964;-2.212;2022-07-06T10:13:01;0.40;;;0.40;;
22480;SDS011;11407;56.964;-2.212;2022-07-06T10:15:28;0.63;;;0.40;;
22480;SDS011;11407;56.964;-2.212;2022-07-06T10:18:01;0.67;;;0.37;;
22480;SDS011;11407;56.964;-2.212;2022-07-06T10:20:31;0.40;;;0.40;;
22480;SDS011;11407;56.964;-2.212;2022-07-06T10:23:00;0.77;;;0.40;;
22480;SDS011;11407;56.964;-2.212;2022-07-06T10:25:26;0.40;;;0.40;;
22480;SDS011;11407;56.964;-2.212;2022-07-06T10:27:52;0.40;;;0.40;;
22480;SDS011;11407;56.964;-2.212;2022-07-06T10:30:18;0.40;;;0.40;;
22480;SDS011;11407;56.964;-2.212;2022-07-06T10:32:46;0.40;;;0.40;;
22480;SDS011;11407;56.964;-2.212;2022-07-06T10:35:13;0.63;;;0.40;;
22480;SDS011;11407;56.964;-2.212;2022-07-06T10:37:40;2.03;;;0.40;;
22480;SDS011;11407;56.964;-2.212;2022-07-06T10:40:06;1.50;;;0.50;;
22480;SDS011;11407;56.964;-2.212;2022-07-06T10:42:58;0.40;;;0.40;;
22480;SDS011;11407;56.964;-2.212;2022-07-06T10:50:40;1.60;;;0.40;;
22480;SDS011;11407;56.964;-2.212;2022-07-06T10:53:14;0.50;;;0.50;;
22480;SDS011;11407;56.964;-2.212;2022-07-06T10:55:47;1.07;;;0.60;;
22480;SDS011;11407;56.964;-2.212;2022-07-06T11:01:00;0.40;;;0.40;;
22480;SDS011;11407;56.964;-2.212;2022-07-06T11:06:00;1.20;;;0.40;;
22480;SDS011;11407;56.964;-2.212;2022-07-06T11:11:20;0.67;;;0.43;;
22480;SDS011;11407;56.964;-2.212;2022-07-06T11:16:16;0.40;;;0.40;;
22480;SDS011;11407;56.964;-2.212;2022-07-06T11:18:47;0.60;;;0.50;;
22480;SDS011;11407;56.964;-2.212;2022-07-06T11:21:21;1.70;;;0.47;;
22480;SDS011;11407;56.964;-2.212;2022-07-06T11:23:48;0.57;;;0.50;;
22480;SDS011;11407;56.964;-2.212;2022-07-06T11:26:15;1.90;;;0.50;;
22480;SDS011;11407;56.964;-2.212;2022-07-06T11:28:43;1.90;;;0.50;;
22480;SDS011;11407;56.964;-2.212;2022-07-06T11:31:11;1.33;;;0.40;;
22480;SDS011;11407;56.964;-2.212;2022-07-06T11:33:36;0.47;;;0.40;;
22480;SDS011;11407;56.964;-2.212;2022-07-06T11:36:18;0.60;;;0.57;;
22480;SDS011;11407;56.964;-2.212;2022-07-06T11:38:46;1.90;;;0.60;;
22480;SDS011;11407;56.964;-2.212;2022-07-06T11:41:13;0.53;;;0.53;;
22480;SDS011;11407;56.964;-2.212;2022-07-06T11:43:46;2.47;;;0.60;;
22480;SDS011;11407;56.964;-2.212;2022-07-06T11:46:49;1.50;;;0.70;;
22480;SDS011;11407;56.964;-2.212;2022-07-06T11:49:08;1.43;;;0.60;;
22480;SDS011;11407;56.964;-2.212;2022-07-06T11:51:34;0.60;;;0.40;;
22480;SDS011;11407;56.964;-2.212;2022-07-06T11:54:07;1.47;;;0.53;;
22480;SDS011;11407;56.964;-2.212;2022-07-06T11:56:37;0.40;;;0.40;;
22480;SDS011;11407;56.964;-2.212;2022-07-06T11:59:10;0.90;;;0.50;;
22480;SDS011;11407;56.964;-2.212;2022-07-06T12:01:35;1.23;;;0.60;;
22480;SDS011;11407;56.964;-2.212;2022-07-06T12:04:06;2.23;;;0.70;;
22480;SDS011;11407;56.964;-2.212;2022-07-06T12:06:32;1.03;;;0.63;;
22480;SDS011;11407;56.964;-2.212;2022-07-06T12:08:58;1.20;;;0.80;;
22480;SDS011;11407;56.964;-2.212;2022-07-06T12:13:53;3.80;;;0.70;;
22480;SDS011;11407;56.964;-2.212;2022-07-06T12:16:20;0.50;;;0.50;;
22480;SDS011;11407;56.964;-2.212;2022-07-06T12:18:48;0.60;;;0.60;;
22480;SDS011;11407;56.964;-2.212;2022-07-06T12:21:16;1.10;;;0.60;;
22480;SDS011;11407;56.964;-2.212;2022-07-06T12:23:44;0.80;;;0.70;;
22480;SDS011;11407;56.964;-2.212;2022-07-06T12:26:12;0.80;;;0.70;;
22480;SDS011;11407;56.964;-2.212;2022-07-06T12:28:39;1.10;;;0.70;;
22480;SDS011;11407;56.964;-2.212;2022-07-06T12:31:05;1.53;;;0.80;;
22480;SDS011;11407;56.964;-2.212;2022-07-06T12:33:31;0.60;;;0.60;;
22480;SDS011;11407;56.964;-2.212;2022-07-06T12:35:57;0.73;;;0.73;;
22480;SDS011;11407;56.964;-2.212;2022-07-06T12:38:33;1.30;;;0.50;;
22480;SDS011;11407;56.964;-2.212;2022-07-06T12:40:58;0.70;;;0.60;;
22480;SDS011;11407;56.964;-2.212;2022-07-06T12:43:37;0.83;;;0.60;;
22480;SDS011;11407;56.964;-2.212;2022-07-06T12:48:55;0.60;;;0.60;;
22480;SDS011;11407;56.964;-2.212;2022-07-06T12:51:21;1.07;;;0.70;;
22480;SDS011;11407;56.964;-2.212;2022-07-06T12:53:47;0.50;;;0.50;;
22480;SDS011;11407;56.964;-2.212;2022-07-06T12:56:13;0.70;;;0.50;;
22480;SDS011;11407;56.964;-2.212;2022-07-06T12:58:39;0.60;;;0.53;;
22480;SDS011;11407;56.964;-2.212;2022-07-06T13:01:18;0.40;;;0.40;;
22480;SDS011;11407;56.964;-2.212;2022-07-06T13:03:44;0.67;;;0.67;;
22480;SDS011;11407;56.964;-2.212;2022-07-06T13:06:09;0.47;;;0.47;;
22480;SDS011;11407;56.964;-2.212;2022-07-06T13:08:35;0.40;;;0.40;;
22480;SDS011;11407;56.964;-2.212;2022-07-06T13:11:00;1.43;;;0.60;;
22480;SDS011;11407;56.964;-2.212;2022-07-06T13:13:26;0.60;;;0.60;;
22480;SDS011;11407;56.964;-2.212;2022-07-06T13:15:51;0.50;;;0.50;;
22480;SDS011;11407;56.964;-2.212;2022-07-06T13:18:17;1.13;;;0.60;;
22480;SDS011;11407;56.964;-2.212;2022-07-06T13:20:44;5.80;;;0.70;;
22480;SDS011;11407;56.964;-2.212;2022-07-06T13:23:10;0.80;;;0.50;;
22480;SDS011;11407;56.964;-2.212;2022-07-06T13:25:35;0.40;;;0.40;;
22480;SDS011;11407;56.964;-2.212;2022-07-06T13:28:01;2.63;;;0.60;;
22480;SDS011;11407;56.964;-2.212;2022-07-06T13:30:26;0.97;;;0.40;;
22480;SDS011;11407;56.964;-2.212;2022-07-06T13:32:51;1.07;;;0.60;;
22480;SDS011;11407;56.964;-2.212;2022-07-06T13:35:17;1.07;;;0.57;;
22480;SDS011;11407;56.964;-2.212;2022-07-06T13:37:43;0.60;;;0.60;;
22480;SDS011;11407;56.964;-2.212;2022-07-06T13:40:12;1.43;;;0.60;;
22480;SDS011;11407;56.964;-2.212;2022-07-06T13:42:37;0.50;;;0.50;;
22480;SDS011;11407;56.964;-2.212;2022-07-06T13:45:03;0.40;;;0.40;;
22480;SDS011;11407;56.964;-2.212;2022-07-06T13:47:28;1.80;;;0.50;;
22480;SDS011;11407;56.964;-2.212;2022-07-06T13:49:54;0.50;;;0.50;;
22480;SDS011;11407;56.964;-2.212;2022-07-06T13:52:19;0.93;;;0.40;;
22480;SDS011;11407;56.964;-2.212;2022-07-06T13:54:45;0.60;;;0.40;;
22480;SDS011;11407;56.964;-2.212;2022-07-06T13:57:10;0.40;;;0.40;;
22480;SDS011;11407;56.964;-2.212;2022-07-06T13:59:36;0.60;;;0.60;;
22480;SDS011;11407;56.964;-2.212;2022-07-06T14:02:01;0.73;;;0.60;;
22480;SDS011;11407;56.964;-2.212;2022-07-06T14:04:26;0.40;;;0.40;;
22480;SDS011;11407;56.964;-2.212;2022-07-06T14:06:52;1.50;;;0.50;;
22480;SDS011;11407;56.964;-2.212;2022-07-06T14:09:18;0.40;;;0.40;;
22480;SDS011;11407;56.964;-2.212;2022-07-06T14:11:43;0.23;;;0.23;;
22480;SDS011;11407;56.964;-2.212;2022-07-06T14:14:09;0.70;;;0.70;;
22480;SDS011;11407;56.964;-2.212;2022-07-06T14:16:34;0.40;;;0.40;;
22480;SDS011;11407;56.964;-2.212;2022-07-06T14:19:00;0.40;;;0.40;;
22480;SDS011;11407;56.964;-2.212;2022-07-06T14:21:26;0.40;;;0.40;;
22480;SDS011;11407;56.964;-2.212;2022-07-06T14:23:51;0.43;;;0.30;;
22480;SDS011;11407;56.964;-2.212;2022-07-06T14:26:17;0.40;;;0.40;;
22480;SDS011;11407;56.964;-2.212;2022-07-06T14:28:42;0.40;;;0.40;;
22480;SDS011;11407;56.964;-2.212;2022-07-06T14:31:08;1.60;;;0.50;;
22480;SDS011;11407;56.964;-2.212;2022-07-06T14:33:33;1.43;;;0.40;;
22480;SDS011;11407;56.964;-2.212;2022-07-06T14:35:59;0.40;;;0.40;;
22480;SDS011;11407;56.964;-2.212;2022-07-06T14:38:24;0.60;;;0.60;;
22480;SDS011;11407;56.964;-2.212;2022-07-06T14:40:52;0.93;;;0.50;;
22480;SDS011;11407;56.964;-2.212;2022-07-06T14:43:18;0.40;;;0.40;;
22480;SDS011;11407;56.964;-2.212;2022-07-06T14:45:44;0.83;;;0.60;;
22480;SDS011;11407;56.964;-2.212;2022-07-06T14:48:10;0.43;;;0.43;;
22480;SDS011;11407;56.964;-2.212;2022-07-06T14:50:35;2.03;;;0.70;;
22480;SDS011;11407;56.964;-2.212;2022-07-06T14:53:01;0.57;;;0.57;;